createdAt,value
2022-08-25T00:08:07.641Z,22.75
2022-08-25T00:18:19.902Z,22.62
2022-08-25T00:28:23.326Z,22.78
2022-08-25T00:38:28.236Z,22.64
2022-08-25T00:48:31.468Z,22.51
2022-08-25T00:58:37.265Z,22.42
2022-08-25T01:08:40.445Z,22.42
2022-08-25T01:18:48.087Z,22.30
2022-08-25T01:29:10.089Z,22.10
2022-08-25T01:39:14.979Z,22.03
2022-08-25T01:49:19.629Z,21.91
2022-08-25T01:59:24.355Z,21.86
2022-08-25T02:09:29.331Z,21.88
2022-08-25T02:19:32.628Z,21.67
2022-08-25T02:29:37.369Z,21.35
2022-08-25T02:39:40.531Z,21.45
2022-08-25T02:49:45.751Z,21.36
2022-08-25T02:59:49.083Z,21.32
2022-08-25T03:09:53.777Z,21.42
2022-08-25T03:19:57.066Z,21.01
2022-08-25T03:30:03.363Z,21.07
2022-08-25T03:40:15.280Z,21.05
2022-08-25T03:50:22.684Z,20.93
2022-08-25T04:00:25.851Z,20.83
2022-08-25T04:10:31.190Z,20.95
2022-08-25T04:20:34.537Z,20.93
2022-08-25T04:30:43.053Z,20.84
2022-08-25T04:40:46.191Z,21.13
2022-08-25T04:50:51.367Z,21.40
2022-08-25T05:00:54.852Z,21.66
2022-08-25T05:10:59.977Z,21.86
2022-08-25T05:21:08.208Z,22.14
2022-08-25T05:31:15.101Z,22.54
2022-08-25T05:41:21.670Z,22.98
2022-08-25T05:51:27.599Z,23.46
2022-08-25T06:01:49.003Z,24.43
2022-08-25T06:11:55.236Z,25.64
2022-08-25T06:21:59.405Z,26.72
2022-08-25T06:32:04.506Z,27.56
2022-08-25T06:42:07.939Z,27.62
2022-08-25T06:52:12.966Z,27.73
2022-08-25T07:02:16.199Z,28.02
2022-08-25T07:12:26.883Z,29.06
2022-08-25T07:22:30.052Z,29.60
2022-08-25T07:32:34.642Z,29.61
2022-08-25T07:42:37.889Z,29.69
2022-08-25T07:52:42.940Z,29.77
2022-08-25T08:02:46.122Z,28.70
2022-08-25T08:12:51.015Z,29.04
2022-08-25T08:22:54.660Z,29.77
2022-08-25T08:33:09.797Z,30.41
2022-08-25T08:43:18.919Z,29.83
2022-08-25T08:53:28.710Z,29.77
2022-08-25T09:03:40.006Z,29.84
2022-08-25T09:13:56.759Z,29.83
2022-08-25T09:24:12.885Z,29.92
2022-08-25T09:34:22.152Z,31.19
2022-08-25T09:44:26.686Z,30.80
2022-08-25T09:54:44.143Z,31.03
2022-08-25T10:04:50.267Z,30.40
2022-08-25T10:14:55.360Z,31.39
2022-08-25T10:25:00.655Z,31.51
2022-08-25T10:35:14.552Z,32.71
2022-08-25T10:45:40.242Z,33.53
2022-08-25T10:55:53.497Z,33.81
2022-08-25T11:06:00.095Z,33.47
2022-08-25T11:16:17.367Z,34.26
2022-08-25T11:26:31.924Z,33.72
2022-08-25T11:36:40.631Z,33.22
2022-08-25T11:46:52.868Z,34.21
2022-08-25T11:57:01.460Z,33.82
2022-08-25T12:07:25.189Z,33.11
2022-08-25T12:17:39.673Z,33.37
2022-08-25T12:27:46.919Z,33.73
2022-08-25T12:38:04.835Z,33.06
2022-08-25T12:48:41.687Z,34.41
2022-08-25T12:59:00.229Z,33.96
2022-08-25T13:09:53.759Z,34.29
2022-08-25T13:20:13.945Z,34.59
2022-08-25T13:30:25.257Z,34.98
2022-08-25T13:40:33.811Z,35.16
2022-08-25T13:50:37.595Z,35.15
2022-08-25T14:00:47.274Z,35.62
2022-08-25T14:10:50.689Z,35.08
2022-08-25T14:20:56.263Z,35.06
2022-08-25T14:31:01.976Z,34.91
2022-08-25T14:51:13.981Z,34.77
2022-08-25T15:01:28.785Z,34.73
2022-08-25T15:11:33.706Z,34.16
2022-08-25T15:21:39.896Z,33.78
2022-08-25T15:31:44.181Z,33.96
2022-08-25T15:41:52.276Z,33.68
2022-08-25T15:51:56.290Z,32.99
2022-08-25T16:02:02.240Z,33.32
2022-08-25T16:12:08.642Z,33.14
2022-08-25T16:22:13.599Z,32.98
2022-08-25T16:32:16.804Z,32.65
2022-08-25T16:42:21.533Z,32.47
2022-08-25T16:52:44.207Z,32.29
2022-08-25T17:02:49.307Z,31.99
2022-08-25T17:12:53.187Z,31.89
2022-08-25T17:22:58.058Z,31.41
2022-08-25T17:33:01.593Z,30.96
2022-08-25T17:43:09.031Z,30.52
2022-08-25T17:53:13.847Z,29.98
2022-08-25T18:03:21.038Z,29.48
2022-08-25T18:13:24.198Z,29.04
2022-08-25T18:23:29.594Z,28.72
2022-08-25T18:33:32.900Z,28.34
2022-08-25T18:43:37.649Z,28.01
2022-08-25T18:53:50.111Z,27.68
2022-08-25T19:03:55.180Z,27.46
2022-08-25T19:13:59.685Z,27.21
2022-08-25T19:24:05.099Z,27.10
2022-08-25T19:34:09.863Z,26.96
2022-08-25T19:44:14.729Z,26.82
2022-08-25T19:54:21.290Z,26.65
2022-08-25T20:04:25.910Z,26.32
2022-08-25T20:14:29.082Z,26.12
2022-08-25T20:24:56.090Z,26.10
2022-08-25T20:35:01.809Z,26.01
2022-08-25T20:45:07.963Z,25.85
2022-08-25T20:55:11.889Z,25.88
2022-08-25T21:05:17.396Z,25.61
2022-08-25T21:15:21.054Z,25.58
2022-08-25T21:25:25.642Z,25.47
2022-08-25T21:35:28.805Z,25.31
2022-08-25T21:45:42.150Z,25.13
2022-08-25T21:55:50.439Z,25.05
2022-08-25T22:05:55.061Z,24.98
2022-08-25T22:15:58.790Z,24.88
2022-08-25T22:26:03.448Z,24.77
2022-08-25T22:36:15.620Z,24.49
2022-08-25T22:46:22.460Z,24.42
2022-08-25T22:56:30.832Z,24.43
2022-08-25T23:06:35.548Z,24.42
2022-08-25T23:16:39.423Z,24.41
2022-08-25T23:26:48.603Z,24.21
2022-08-25T23:36:55.814Z,24.20
2022-08-25T23:47:00.394Z,24.02
2022-08-25T23:57:03.813Z,24.05
